createdAt,value
2022-11-18T00:01:10.037Z,68.16
2022-11-18T00:03:39.322Z,67.61
2022-11-18T00:06:12.256Z,68.13
2022-11-18T00:08:41.005Z,68.29
2022-11-18T00:11:10.247Z,68.51
2022-11-18T00:13:56.416Z,68.07
2022-11-18T00:16:24.944Z,68.06
2022-11-18T00:18:53.028Z,67.91
2022-11-18T00:21:23.846Z,68.09
2022-11-18T00:23:52.030Z,67.99
2022-11-18T00:26:21.046Z,67.89
2022-11-18T00:28:49.771Z,67.71
2022-11-18T00:31:19.234Z,67.96
2022-11-18T00:33:48.372Z,67.68
2022-11-18T00:36:16.792Z,67.94
2022-11-18T00:38:47.655Z,67.83
2022-11-18T00:41:17.222Z,67.69
2022-11-18T00:43:44.549Z,67.64
2022-11-18T00:46:13.728Z,67.50
2022-11-18T00:48:43.101Z,67.37
2022-11-18T00:51:13.581Z,67.46
2022-11-18T00:53:42.437Z,67.40
2022-11-18T00:56:12.652Z,67.17
2022-11-18T00:58:41.197Z,67.29
2022-11-18T01:01:11.513Z,67.07
2022-11-18T01:03:41.379Z,67.34
2022-11-18T01:06:11.173Z,66.76
2022-11-18T01:08:40.715Z,67.31
2022-11-18T01:11:22.839Z,67.19
2022-11-18T01:13:53.320Z,66.80
2022-11-18T01:16:22.907Z,66.94
2022-11-18T01:18:51.866Z,67.12
2022-11-18T01:21:20.255Z,67.19
2022-11-18T01:23:50.565Z,67.35
2022-11-18T01:26:19.493Z,67.28
2022-11-18T01:28:48.329Z,67.11
2022-11-18T01:31:19.455Z,67.12
2022-11-18T01:33:48.831Z,67.15
2022-11-18T01:36:20.265Z,67.23
2022-11-18T01:38:51.109Z,66.90
2022-11-18T01:41:21.982Z,66.93
2022-11-18T01:43:52.901Z,66.92
2022-11-18T01:46:28.113Z,67.11
2022-11-18T01:48:59.533Z,67.17
2022-11-18T01:51:31.830Z,67.07
2022-11-18T01:54:02.634Z,67.20
2022-11-18T01:56:35.314Z,67.46
2022-11-18T01:59:05.457Z,67.30
2022-11-18T02:01:35.513Z,67.74
2022-11-18T02:04:04.905Z,67.52
2022-11-18T02:06:33.735Z,66.78
2022-11-18T02:09:03.158Z,67.16
2022-11-18T02:11:50.351Z,67.13
2022-11-18T02:14:20.927Z,67.09
2022-11-18T02:16:58.166Z,66.99
2022-11-18T02:19:50.323Z,67.21
2022-11-18T02:22:24.343Z,67.46
2022-11-18T02:24:58.516Z,67.20
2022-11-18T02:27:35.317Z,67.35
2022-11-18T02:30:08.540Z,66.97
2022-11-18T02:32:41.571Z,66.87
2022-11-18T02:35:15.580Z,66.89
2022-11-18T02:37:47.786Z,67.17
2022-11-18T02:40:18.858Z,67.08
2022-11-18T02:42:51.440Z,66.76
2022-11-18T02:45:23.446Z,67.08
2022-11-18T02:47:52.876Z,67.17
2022-11-18T02:50:25.399Z,67.34
2022-11-18T02:52:57.645Z,67.31
2022-11-18T02:55:28.256Z,67.02
2022-11-18T02:58:01.468Z,67.36
2022-11-18T03:00:33.345Z,67.25
2022-11-18T03:03:04.036Z,67.05
2022-11-18T03:05:37.623Z,67.06
2022-11-18T03:08:12.589Z,66.76
2022-11-18T03:10:45.681Z,67.34
2022-11-18T03:13:19.813Z,67.22
2022-11-18T03:15:54.418Z,66.98
2022-11-18T03:18:27.371Z,67.27
2022-11-18T03:21:01.545Z,67.32
2022-11-18T03:23:32.003Z,67.26
2022-11-18T03:26:05.278Z,67.37
2022-11-18T03:28:38.531Z,66.94
2022-11-18T03:31:14.497Z,67.05
2022-11-18T03:33:46.133Z,67.22
2022-11-18T03:36:16.028Z,67.13
2022-11-18T03:38:48.292Z,67.63
2022-11-18T03:41:20.382Z,67.65
2022-11-18T03:43:53.335Z,67.69
2022-11-18T03:46:25.315Z,67.51
2022-11-18T03:48:56.167Z,67.43
2022-11-18T03:51:26.646Z,67.79
2022-11-18T03:53:59.209Z,67.85
2022-11-18T03:56:31.251Z,67.79
2022-11-18T03:59:06.381Z,67.67
2022-11-18T04:01:41.060Z,67.54
2022-11-18T04:04:12.374Z,67.26
2022-11-18T04:06:45.821Z,67.32
2022-11-18T04:09:17.619Z,67.23
2022-11-18T04:12:08.260Z,67.27
2022-11-18T04:14:40.061Z,67.58
2022-11-18T04:17:14.374Z,67.58
2022-11-18T04:19:43.703Z,67.50
2022-11-18T04:22:15.415Z,67.10
2022-11-18T04:24:44.753Z,67.07
2022-11-18T04:27:17.046Z,67.56
2022-11-18T04:29:52.838Z,67.52
2022-11-18T04:32:29.405Z,67.66
2022-11-18T04:34:58.921Z,67.34
2022-11-18T04:37:29.906Z,67.40
2022-11-18T04:39:59.954Z,67.35
2022-11-18T04:42:31.357Z,67.34
2022-11-18T04:45:01.246Z,67.12
2022-11-18T04:47:35.096Z,67.01
2022-11-18T04:50:07.212Z,67.01
2022-11-18T04:52:37.559Z,66.87
2022-11-18T04:55:06.833Z,66.93
2022-11-18T04:57:37.393Z,66.96
2022-11-18T05:00:08.705Z,67.20
2022-11-18T05:02:40.723Z,67.25
2022-11-18T05:05:10.037Z,67.41
2022-11-18T05:07:43.225Z,67.27
2022-11-18T05:10:15.049Z,67.22
2022-11-18T05:12:53.752Z,67.20
2022-11-18T05:15:26.626Z,67.12
2022-11-18T05:17:58.244Z,67.02
2022-11-18T05:20:29.314Z,66.93
2022-11-18T05:23:00.953Z,66.86
2022-11-18T05:25:31.348Z,66.48
2022-11-18T05:28:02.317Z,66.70
2022-11-18T05:30:33.936Z,66.75
2022-11-18T05:33:04.838Z,66.69
2022-11-18T05:35:34.748Z,67.07
2022-11-18T05:38:05.019Z,66.73
2022-11-18T05:40:35.515Z,66.83
2022-11-18T05:43:12.096Z,66.60
2022-11-18T05:45:49.358Z,66.75
2022-11-18T05:48:21.507Z,66.94
2022-11-18T05:50:57.926Z,66.83
2022-11-18T05:53:38.168Z,66.78
2022-11-18T05:59:08.476Z,65.99
2022-11-18T06:01:41.987Z,66.33
2022-11-18T06:04:16.686Z,66.04
2022-11-18T06:06:49.120Z,66.19
2022-11-18T06:09:29.693Z,66.08
2022-11-18T06:12:05.329Z,65.98
2022-11-18T06:14:40.623Z,66.06
2022-11-18T06:17:16.700Z,65.89
2022-11-18T06:19:50.432Z,66.04
2022-11-18T06:22:21.221Z,65.81
2022-11-18T06:24:53.504Z,65.63
2022-11-18T06:27:28.388Z,66.40
2022-11-18T06:29:59.507Z,66.08
2022-11-18T06:32:30.910Z,66.13
2022-11-18T06:35:06.638Z,65.74
2022-11-18T06:37:36.388Z,65.75
2022-11-18T06:40:17.295Z,66.16
2022-11-18T06:43:04.565Z,65.85
2022-11-18T06:45:36.786Z,65.91
2022-11-18T06:48:09.063Z,65.77
2022-11-18T06:50:41.474Z,65.87
2022-11-18T06:53:10.769Z,65.87
2022-11-18T06:55:42.427Z,65.89
2022-11-18T06:58:11.270Z,65.96
2022-11-18T07:00:42.101Z,65.99
2022-11-18T07:03:12.006Z,66.25
2022-11-18T07:05:43.535Z,65.82
2022-11-18T07:08:12.446Z,66.17
2022-11-18T07:10:42.187Z,66.27
2022-11-18T07:13:14.094Z,65.86
2022-11-18T07:15:47.254Z,66.51
2022-11-18T07:18:23.499Z,66.42
2022-11-18T07:20:56.891Z,66.24
2022-11-18T07:23:29.344Z,66.73
2022-11-18T07:26:02.379Z,66.72
2022-11-18T07:28:31.915Z,66.51
2022-11-18T07:31:04.497Z,66.45
2022-11-18T07:33:34.439Z,66.25
2022-11-18T07:36:09.445Z,65.79
2022-11-18T07:38:43.122Z,66.13
2022-11-18T07:41:13.602Z,65.73
2022-11-18T07:43:45.474Z,65.58
2022-11-18T07:46:15.032Z,65.37
2022-11-18T07:48:44.587Z,65.45
2022-11-18T07:51:23.714Z,65.07
2022-11-18T07:53:57.116Z,65.32
2022-11-18T07:56:26.440Z,65.54
2022-11-18T07:58:55.915Z,65.80
2022-11-18T08:01:30.441Z,65.57
2022-11-18T08:04:03.343Z,65.26
2022-11-18T08:06:33.966Z,65.40
2022-11-18T08:09:03.330Z,65.19
2022-11-18T08:11:32.974Z,65.45
2022-11-18T08:14:04.933Z,65.84
2022-11-18T08:16:33.946Z,65.78
2022-11-18T08:19:03.272Z,65.70
2022-11-18T08:21:35.060Z,65.92
2022-11-18T08:24:04.841Z,65.93
2022-11-18T08:26:34.709Z,65.45
2022-11-18T08:29:05.934Z,65.28
2022-11-18T08:31:35.162Z,65.33
2022-11-18T08:34:06.624Z,65.58
2022-11-18T08:36:39.550Z,65.13
2022-11-18T08:39:09.424Z,65.11
2022-11-18T08:41:40.825Z,65.46
2022-11-18T08:44:11.764Z,65.64
2022-11-18T08:46:41.220Z,65.00
2022-11-18T08:49:11.576Z,65.42
2022-11-18T08:51:45.715Z,65.47
2022-11-18T08:54:17.565Z,65.57
2022-11-18T08:56:46.653Z,65.46
2022-11-18T08:59:16.412Z,65.39
2022-11-18T09:01:47.013Z,65.50
2022-11-18T09:04:23.294Z,65.63
2022-11-18T09:07:02.922Z,65.58
2022-11-18T09:09:36.416Z,64.92
2022-11-18T09:12:06.900Z,64.84
2022-11-18T09:17:26.610Z,65.53
2022-11-18T09:19:56.366Z,65.72
2022-11-18T09:22:27.066Z,65.63
2022-11-18T09:24:59.494Z,65.07
2022-11-18T09:27:30.870Z,65.61
2022-11-18T09:30:02.081Z,65.63
2022-11-18T09:32:32.744Z,65.74
2022-11-18T09:35:01.689Z,65.70
2022-11-18T09:37:36.179Z,65.36
2022-11-18T09:40:05.781Z,64.99
2022-11-18T09:42:43.071Z,64.93
2022-11-18T09:45:24.210Z,65.48
2022-11-18T09:47:54.641Z,65.06
2022-11-18T09:53:22.063Z,65.13
2022-11-18T09:55:51.783Z,65.24
2022-11-18T09:58:26.629Z,65.02
2022-11-18T10:01:00.089Z,65.07
2022-11-18T10:03:33.437Z,64.87
2022-11-18T10:06:07.660Z,65.14
2022-11-18T10:08:44.598Z,65.39
2022-11-18T10:11:20.308Z,64.99
2022-11-18T10:13:56.279Z,64.59
2022-11-18T10:16:32.737Z,64.32
2022-11-18T10:19:10.193Z,64.53
2022-11-18T10:21:47.162Z,64.35
2022-11-18T10:24:22.075Z,64.98
2022-11-18T10:26:57.268Z,65.13
2022-11-18T10:29:27.928Z,64.86
2022-11-18T10:32:04.379Z,64.57
2022-11-18T10:34:35.935Z,64.89
2022-11-18T10:37:06.875Z,64.51
2022-11-18T10:39:53.170Z,64.64
2022-11-18T10:42:28.084Z,64.61
2022-11-18T10:44:57.127Z,64.31
2022-11-18T10:47:44.267Z,64.13
2022-11-18T10:50:33.406Z,64.00
2022-11-18T10:53:07.503Z,64.56
2022-11-18T10:55:38.750Z,64.65
2022-11-18T10:58:11.562Z,64.76
2022-11-18T11:00:44.879Z,64.99
2022-11-18T11:03:45.182Z,64.48
2022-11-18T11:06:32.261Z,64.92
2022-11-18T11:09:03.086Z,64.55
2022-11-18T11:11:37.381Z,64.42
2022-11-18T11:14:20.843Z,64.15
2022-11-18T11:16:53.787Z,64.40
2022-11-18T11:19:25.946Z,64.58
2022-11-18T11:21:56.759Z,64.66
2022-11-18T11:24:29.283Z,64.63
2022-11-18T11:30:10.302Z,65.03
2022-11-18T11:32:46.827Z,65.25
2022-11-18T11:35:21.305Z,65.32
2022-11-18T11:37:54.367Z,65.10
2022-11-18T11:40:29.588Z,65.35
2022-11-18T11:43:05.582Z,65.37
2022-11-18T11:45:41.199Z,65.52
2022-11-18T11:48:18.689Z,65.62
2022-11-18T11:51:05.076Z,65.99
2022-11-18T11:53:49.040Z,65.75
2022-11-18T11:56:22.958Z,65.77
2022-11-18T11:59:16.601Z,65.18
2022-11-18T12:01:57.819Z,65.26
2022-11-18T12:04:39.033Z,65.71
2022-11-18T12:07:10.464Z,65.91
2022-11-18T12:09:47.810Z,65.98
2022-11-18T12:12:37.468Z,65.44
2022-11-18T12:15:22.620Z,65.18
2022-11-18T12:17:59.278Z,65.45
2022-11-18T12:20:44.234Z,65.46
2022-11-18T12:23:15.481Z,65.61
2022-11-18T12:25:58.916Z,65.43
2022-11-18T12:28:32.109Z,65.69
2022-11-18T12:31:30.523Z,65.99
2022-11-18T12:34:09.078Z,66.06
2022-11-18T12:36:44.423Z,66.19
2022-11-18T12:39:45.539Z,66.20
2022-11-18T12:42:56.948Z,65.80
2022-11-18T12:45:53.431Z,66.52
2022-11-18T12:48:33.348Z,66.91
2022-11-18T12:51:06.056Z,66.86
2022-11-18T12:53:38.736Z,66.76
2022-11-18T12:56:24.634Z,67.37
2022-11-18T12:58:57.761Z,68.10
2022-11-18T13:01:30.786Z,68.04
2022-11-18T13:04:10.733Z,67.72
2022-11-18T13:06:44.563Z,67.51
2022-11-18T13:09:21.650Z,67.28
2022-11-18T13:11:57.203Z,67.28
2022-11-18T13:14:47.362Z,67.20
2022-11-18T13:17:45.558Z,66.92
2022-11-18T13:23:49.405Z,67.41
2022-11-18T13:29:31.576Z,67.45
2022-11-18T13:32:12.170Z,67.27
2022-11-18T13:34:53.342Z,67.80
2022-11-18T13:37:35.588Z,67.55
2022-11-18T13:40:09.309Z,67.62
2022-11-18T13:42:48.463Z,68.02
2022-11-18T13:45:21.867Z,67.69
2022-11-18T13:47:54.393Z,67.84
2022-11-18T13:50:32.412Z,67.50
2022-11-18T13:53:08.484Z,67.16
2022-11-18T13:55:44.307Z,67.12
2022-11-18T13:58:30.795Z,67.08
2022-11-18T14:01:06.162Z,67.03
2022-11-18T14:03:37.462Z,67.19
2022-11-18T14:06:09.177Z,67.13
2022-11-18T14:08:39.338Z,67.11
2022-11-18T14:11:12.492Z,67.25
2022-11-18T14:13:51.717Z,67.25
2022-11-18T14:16:35.851Z,67.62
2022-11-18T14:19:07.729Z,67.40
2022-11-18T14:21:39.892Z,67.20
2022-11-18T14:24:10.610Z,67.53
2022-11-18T14:26:48.810Z,67.46
2022-11-18T14:29:23.634Z,67.68
2022-11-18T14:32:07.957Z,68.06
2022-11-18T14:34:37.551Z,67.61
2022-11-18T14:37:13.813Z,67.43
2022-11-18T14:39:43.484Z,67.03
2022-11-18T14:42:18.733Z,67.27
2022-11-18T14:44:53.439Z,67.39
2022-11-18T14:47:27.629Z,67.27
2022-11-18T14:49:58.266Z,67.39
2022-11-18T14:52:27.191Z,67.95
2022-11-18T14:55:02.806Z,67.90
2022-11-18T14:57:35.899Z,68.25
2022-11-18T15:00:08.782Z,68.24
2022-11-18T15:02:41.189Z,68.98
2022-11-18T15:05:14.475Z,69.03
2022-11-18T15:07:47.020Z,68.81
2022-11-18T15:10:20.970Z,68.66
2022-11-18T15:12:51.332Z,68.87
2022-11-18T15:15:20.117Z,68.63
2022-11-18T15:17:53.784Z,68.72
2022-11-18T15:20:24.823Z,68.69
2022-11-18T15:22:56.240Z,68.42
2022-11-18T15:25:26.859Z,68.88
2022-11-18T15:27:59.919Z,68.50
2022-11-18T15:30:30.186Z,67.82
2022-11-18T15:32:59.557Z,67.83
2022-11-18T15:35:29.900Z,67.62
2022-11-18T15:37:59.736Z,67.62
2022-11-18T15:40:29.459Z,67.43
2022-11-18T15:43:03.394Z,67.90
2022-11-18T15:45:33.629Z,67.54
2022-11-18T15:48:12.273Z,67.04
2022-11-18T15:50:45.499Z,66.98
2022-11-18T15:53:15.402Z,67.12
2022-11-18T15:55:45.595Z,67.07
2022-11-18T15:58:18.685Z,67.55
2022-11-18T16:00:48.235Z,67.56
2022-11-18T16:03:17.362Z,67.31
2022-11-18T16:05:48.604Z,67.40
2022-11-18T16:08:17.899Z,67.26
2022-11-18T16:11:04.467Z,67.65
2022-11-18T16:13:36.838Z,68.25
2022-11-18T16:16:06.604Z,68.20
2022-11-18T16:18:40.718Z,68.00
2022-11-18T16:21:10.318Z,67.87
2022-11-18T16:23:39.297Z,68.02
2022-11-18T16:26:12.439Z,68.21
2022-11-18T16:28:44.441Z,68.21
2022-11-18T16:31:31.778Z,67.94
2022-11-18T16:34:01.211Z,67.72
2022-11-18T16:36:31.477Z,67.38
2022-11-18T16:39:00.706Z,67.59
2022-11-18T16:41:35.782Z,67.62
2022-11-18T16:44:07.344Z,67.79
2022-11-18T16:46:37.633Z,68.11
2022-11-18T16:49:07.255Z,68.11
2022-11-18T16:51:39.325Z,68.36
2022-11-18T16:54:08.943Z,67.95
2022-11-18T16:59:36.470Z,68.20
2022-11-18T17:02:14.025Z,68.32
2022-11-18T17:04:43.286Z,68.18
2022-11-18T17:07:13.374Z,68.06
2022-11-18T17:09:42.468Z,68.01
2022-11-18T17:12:38.757Z,67.89
2022-11-18T17:15:10.868Z,68.38
2022-11-18T17:20:33.087Z,67.72
2022-11-18T17:23:03.450Z,67.57
2022-11-18T17:25:35.192Z,67.75
2022-11-18T17:28:04.656Z,67.79
2022-11-18T17:30:37.895Z,67.85
2022-11-18T17:33:07.517Z,67.96
2022-11-18T17:35:36.044Z,67.80
2022-11-18T17:38:04.808Z,67.94
2022-11-18T17:40:35.230Z,67.92
2022-11-18T17:43:04.528Z,68.15
2022-11-18T17:45:35.100Z,68.04
2022-11-18T17:48:04.291Z,67.51
2022-11-18T17:50:33.378Z,67.83
2022-11-18T17:53:02.881Z,67.84
2022-11-18T17:55:31.754Z,68.58
2022-11-18T17:58:01.317Z,68.05
2022-11-18T18:00:32.814Z,67.97
2022-11-18T18:03:04.981Z,68.07
2022-11-18T18:05:35.343Z,68.10
2022-11-18T18:08:06.756Z,68.13
2022-11-18T18:10:35.430Z,67.95
2022-11-18T18:13:23.410Z,68.65
2022-11-18T18:16:03.442Z,69.01
2022-11-18T18:18:34.189Z,69.30
2022-11-18T18:21:04.671Z,69.31
2022-11-18T18:23:35.861Z,69.14
2022-11-18T18:26:05.012Z,69.13
2022-11-18T18:28:34.417Z,68.88
2022-11-18T18:31:05.126Z,69.11
2022-11-18T18:33:37.579Z,68.58
2022-11-18T18:36:07.547Z,69.03
2022-11-18T18:38:36.804Z,69.18
2022-11-18T18:41:07.788Z,69.60
2022-11-18T18:43:36.602Z,69.96
2022-11-18T18:46:24.060Z,69.95
2022-11-18T18:48:55.455Z,69.86
2022-11-18T18:51:25.351Z,70.24
2022-11-18T18:56:26.866Z,69.76
2022-11-18T18:58:56.178Z,69.57
2022-11-18T19:01:25.280Z,69.71
2022-11-18T19:03:58.823Z,69.56
2022-11-18T19:09:19.834Z,69.42
2022-11-18T19:12:06.050Z,69.29
2022-11-18T19:14:35.209Z,69.49
2022-11-18T19:17:10.204Z,69.57
2022-11-18T19:20:01.142Z,69.60
2022-11-18T19:22:31.422Z,69.61
2022-11-18T19:25:01.702Z,69.51
2022-11-18T19:27:34.490Z,69.54
2022-11-18T19:30:04.123Z,69.93
2022-11-18T19:32:33.541Z,69.96
2022-11-18T19:35:04.319Z,69.82
2022-11-18T19:37:34.631Z,69.74
2022-11-18T19:40:08.927Z,69.35
2022-11-18T19:42:41.378Z,69.38
2022-11-18T19:45:11.437Z,69.33
2022-11-18T19:47:42.174Z,69.49
2022-11-18T19:50:13.362Z,69.16
2022-11-18T19:52:42.715Z,69.12
2022-11-18T19:55:15.327Z,69.39
2022-11-18T19:57:45.481Z,69.29
2022-11-18T20:00:15.990Z,69.47
2022-11-18T20:02:54.896Z,69.32
2022-11-18T20:05:47.229Z,69.22
2022-11-18T20:08:17.087Z,69.35
2022-11-18T20:10:46.010Z,69.34
2022-11-18T20:13:15.700Z,69.44
2022-11-18T20:15:44.948Z,69.38
2022-11-18T20:18:13.827Z,69.28
2022-11-18T20:20:45.668Z,69.26
2022-11-18T20:23:14.644Z,69.53
2022-11-18T20:25:46.023Z,69.77
2022-11-18T20:28:19.251Z,70.01
2022-11-18T20:30:48.807Z,70.42
2022-11-18T20:33:20.728Z,70.71
2022-11-18T20:35:51.857Z,70.56
2022-11-18T20:38:21.859Z,70.23
2022-11-18T20:40:51.550Z,69.91
2022-11-18T20:43:20.302Z,70.09
2022-11-18T20:45:55.338Z,70.10
2022-11-18T20:48:25.054Z,70.00
2022-11-18T20:50:57.059Z,69.69
2022-11-18T20:53:27.091Z,69.70
2022-11-18T20:55:55.797Z,69.58
2022-11-18T20:58:25.424Z,69.18
2022-11-18T21:01:01.492Z,68.90
2022-11-18T21:03:30.435Z,69.06
2022-11-18T21:06:08.402Z,68.98
2022-11-18T21:08:41.610Z,69.06
2022-11-18T21:11:11.439Z,69.43
2022-11-18T21:13:57.477Z,69.47
2022-11-18T21:16:27.506Z,69.43
2022-11-18T21:18:55.897Z,69.27
2022-11-18T21:21:46.294Z,69.16
2022-11-18T21:24:17.709Z,68.98
2022-11-18T21:26:48.512Z,69.01
2022-11-18T21:29:18.819Z,68.95
2022-11-18T21:31:49.397Z,69.70
2022-11-18T21:34:18.464Z,69.75
2022-11-18T21:36:54.384Z,69.73
2022-11-18T21:39:24.158Z,69.52
2022-11-18T21:41:56.318Z,69.99
2022-11-18T21:44:26.400Z,70.02
2022-11-18T21:46:55.032Z,70.44
2022-11-18T21:49:24.348Z,70.80
2022-11-18T21:51:55.063Z,70.65
2022-11-18T21:54:26.217Z,71.08
2022-11-18T21:56:55.152Z,71.11
2022-11-18T21:59:24.892Z,70.48
2022-11-18T22:01:53.858Z,70.25
2022-11-18T22:04:40.203Z,70.24
2022-11-18T22:07:12.769Z,70.04
2022-11-18T22:09:41.798Z,70.18
2022-11-18T22:12:11.044Z,70.05
2022-11-18T22:14:41.720Z,70.17
2022-11-18T22:17:12.624Z,69.71
2022-11-18T22:19:42.246Z,69.54
2022-11-18T22:22:12.688Z,69.76
2022-11-18T22:24:41.734Z,69.91
2022-11-18T22:27:11.635Z,69.93
2022-11-18T22:29:46.071Z,69.58
2022-11-18T22:32:14.966Z,69.44
2022-11-18T22:34:49.224Z,69.15
2022-11-18T22:37:22.782Z,69.41
2022-11-18T22:39:52.776Z,69.63
2022-11-18T22:42:39.317Z,69.61
2022-11-18T22:45:09.664Z,69.98
2022-11-18T22:47:43.549Z,69.42
2022-11-18T22:50:14.231Z,69.49
2022-11-18T22:52:45.302Z,69.07
2022-11-18T22:55:14.487Z,69.15
2022-11-18T22:57:45.049Z,68.99
2022-11-18T23:00:17.182Z,69.27
2022-11-18T23:02:45.494Z,69.17
2022-11-18T23:05:16.236Z,69.26
2022-11-18T23:07:47.216Z,69.15
2022-11-18T23:10:16.851Z,69.12
2022-11-18T23:13:02.850Z,69.17
2022-11-18T23:15:31.729Z,69.17
2022-11-18T23:18:00.436Z,69.14
2022-11-18T23:20:29.019Z,69.12
2022-11-18T23:22:59.646Z,68.97
2022-11-18T23:25:31.360Z,68.97
2022-11-18T23:28:00.273Z,68.93
2022-11-18T23:30:29.125Z,68.82
2022-11-18T23:32:59.764Z,68.98
2022-11-18T23:35:32.689Z,68.82
2022-11-18T23:38:03.802Z,69.02
2022-11-18T23:40:36.461Z,69.38
2022-11-18T23:43:05.172Z,69.28
2022-11-18T23:45:34.117Z,69.11
2022-11-18T23:48:02.787Z,69.35
2022-11-18T23:50:36.596Z,69.10
2022-11-18T23:53:12.376Z,69.07
2022-11-18T23:55:41.218Z,69.14
2022-11-18T23:58:10.880Z,69.16
